createdAt,value
2022-09-04T00:00:08.704Z,22.10
2022-09-04T00:03:15.111Z,22.14
2022-09-04T00:05:51.430Z,22.10
2022-09-04T00:08:24.078Z,21.98
2022-09-04T00:11:00.613Z,22.01
2022-09-04T00:13:36.924Z,22.07
2022-09-04T00:16:08.851Z,21.93
2022-09-04T00:18:38.930Z,21.84
2022-09-04T00:21:27.480Z,21.88
2022-09-04T00:24:00.115Z,21.71
2022-09-04T00:26:59.177Z,21.83
2022-09-04T00:29:41.088Z,21.77
2022-09-04T00:32:40.825Z,21.78
2022-09-04T00:35:19.820Z,21.64
2022-09-04T00:38:13.003Z,21.58
2022-09-04T00:40:43.608Z,21.59
2022-09-04T00:43:44.390Z,21.57
2022-09-04T00:46:30.252Z,21.43
2022-09-04T00:49:02.899Z,21.22
2022-09-04T00:51:43.311Z,21.29
2022-09-04T00:54:28.174Z,21.31
2022-09-04T00:57:10.992Z,21.33
2022-09-04T01:00:06.692Z,21.35
2022-09-04T01:03:04.027Z,21.40
2022-09-04T01:05:40.445Z,21.26
2022-09-04T01:08:21.987Z,21.31
2022-09-04T01:11:44.618Z,21.31
2022-09-04T01:14:38.390Z,21.14
2022-09-04T01:17:37.656Z,21.30
2022-09-04T01:20:16.541Z,21.28
2022-09-04T01:22:58.740Z,21.24
2022-09-04T01:25:55.144Z,21.07
2022-09-04T01:28:50.922Z,21.05
2022-09-04T01:31:23.504Z,21.08
2022-09-04T01:34:35.401Z,21.11
2022-09-04T01:37:31.160Z,20.88
2022-09-04T01:40:24.173Z,20.97
2022-09-04T01:43:22.804Z,21.01
2022-09-04T01:46:08.145Z,20.73
2022-09-04T01:48:41.249Z,20.56
2022-09-04T01:51:22.974Z,20.95
2022-09-04T01:54:01.847Z,20.90
2022-09-04T01:56:43.100Z,20.93
2022-09-04T01:59:32.965Z,20.96
2022-09-04T02:02:30.858Z,21.18
2022-09-04T02:05:21.575Z,21.17
2022-09-04T02:07:58.778Z,21.10
2022-09-04T02:10:28.985Z,21.02
2022-09-04T02:13:07.245Z,20.89
2022-09-04T02:15:39.275Z,20.94
2022-09-04T02:18:24.773Z,20.64
2022-09-04T02:21:00.183Z,20.78
2022-09-04T02:23:40.713Z,20.93
2022-09-04T02:26:10.294Z,20.93
2022-09-04T02:28:48.514Z,20.93
2022-09-04T02:31:19.447Z,20.85
2022-09-04T02:33:54.585Z,20.69
2022-09-04T02:36:27.707Z,20.82
2022-09-04T02:39:13.102Z,20.71
2022-09-04T02:41:43.142Z,20.73
2022-09-04T02:44:25.384Z,20.70
2022-09-04T02:47:20.412Z,20.40
2022-09-04T02:50:04.356Z,20.22
2022-09-04T02:52:49.439Z,20.25
2022-09-04T02:55:48.206Z,20.08
2022-09-04T02:58:25.941Z,20.09
2022-09-04T03:00:54.327Z,20.20
2022-09-04T03:03:47.540Z,20.22
2022-09-04T03:06:52.387Z,19.81
2022-09-04T03:09:49.723Z,19.85
2022-09-04T03:12:35.033Z,19.82
2022-09-04T03:15:22.657Z,19.92
2022-09-04T03:18:16.801Z,19.82
2022-09-04T03:20:49.774Z,19.97
2022-09-04T03:23:39.903Z,20.06
2022-09-04T03:26:16.925Z,19.60
2022-09-04T03:29:10.200Z,20.01
2022-09-04T03:31:51.822Z,19.97
2022-09-04T03:34:26.863Z,19.90
2022-09-04T03:37:27.551Z,19.90
2022-09-04T03:39:57.071Z,19.91
2022-09-04T03:42:39.528Z,19.71
2022-09-04T03:45:12.358Z,19.89
2022-09-04T03:47:57.089Z,19.92
2022-09-04T03:50:36.020Z,19.86
2022-09-04T03:53:14.183Z,19.48
2022-09-04T03:56:11.594Z,19.37
2022-09-04T03:58:41.075Z,19.44
2022-09-04T04:01:37.186Z,19.60
2022-09-04T04:04:09.628Z,19.69
2022-09-04T04:06:42.023Z,19.53
2022-09-04T04:09:18.749Z,19.69
2022-09-04T04:11:57.470Z,19.67
2022-09-04T04:14:47.130Z,19.69
2022-09-04T04:17:32.498Z,19.75
2022-09-04T04:20:05.177Z,19.67
2022-09-04T04:23:02.926Z,19.68
2022-09-04T04:25:52.412Z,19.40
2022-09-04T04:28:24.459Z,19.31
2022-09-04T04:30:54.426Z,19.22
2022-09-04T04:33:42.050Z,19.41
2022-09-04T04:36:17.690Z,19.48
2022-09-04T04:38:53.357Z,19.40
2022-09-04T04:41:23.330Z,19.59
2022-09-04T04:43:52.846Z,19.68
2022-09-04T04:46:40.611Z,19.56
2022-09-04T04:49:18.940Z,19.61
2022-09-04T04:51:48.191Z,19.69
2022-09-04T04:54:31.091Z,19.72
2022-09-04T04:57:23.573Z,19.65
2022-09-04T05:00:07.739Z,19.75
2022-09-04T05:02:40.508Z,19.72
2022-09-04T05:05:24.287Z,19.63
2022-09-04T05:08:08.027Z,19.55
2022-09-04T05:10:40.727Z,19.76
2022-09-04T05:13:14.257Z,19.64
2022-09-04T05:16:09.906Z,19.67
2022-09-04T05:18:48.727Z,19.83
2022-09-04T05:21:48.864Z,19.87
2022-09-04T05:24:22.821Z,19.93
2022-09-04T05:27:00.797Z,20.00
2022-09-04T05:30:02.700Z,19.95
2022-09-04T05:32:55.634Z,19.90
2022-09-04T05:35:37.260Z,19.93
2022-09-04T05:38:06.785Z,20.01
2022-09-04T05:40:55.529Z,20.20
2022-09-04T05:43:43.878Z,20.26
2022-09-04T05:46:32.101Z,20.02
2022-09-04T05:49:13.955Z,20.11
2022-09-04T05:52:00.717Z,20.35
2022-09-04T05:54:39.664Z,20.22
2022-09-04T05:57:26.862Z,20.54
2022-09-04T06:00:18.477Z,20.69
2022-09-04T06:02:54.301Z,20.82
2022-09-04T06:05:47.088Z,20.96
2022-09-04T06:08:38.765Z,21.03
2022-09-04T06:11:24.069Z,21.17
2022-09-04T06:14:05.806Z,21.04
2022-09-04T06:16:41.661Z,21.35
2022-09-04T06:19:31.211Z,21.43
2022-09-04T06:22:08.741Z,21.32
2022-09-04T06:25:13.880Z,21.77
2022-09-04T06:27:44.998Z,21.89
2022-09-04T06:30:13.834Z,21.81
2022-09-04T06:32:59.188Z,21.30
2022-09-04T06:35:38.031Z,21.83
2022-09-04T06:38:22.548Z,22.06
2022-09-04T06:40:51.754Z,22.10
2022-09-04T06:43:40.555Z,21.94
2022-09-04T06:46:23.880Z,21.59
2022-09-04T06:49:10.961Z,21.61
2022-09-04T06:51:55.718Z,21.68
2022-09-04T06:54:32.221Z,21.72
2022-09-04T06:57:11.166Z,21.86
2022-09-04T07:00:13.093Z,22.13
2022-09-04T07:02:48.403Z,22.38
2022-09-04T07:05:43.421Z,22.72
2022-09-04T07:08:30.747Z,22.76
2022-09-04T07:11:28.425Z,22.96
2022-09-04T07:14:20.141Z,23.19
2022-09-04T07:16:53.654Z,23.03
2022-09-04T07:19:38.711Z,23.62
2022-09-04T07:22:22.861Z,23.44
2022-09-04T07:25:07.752Z,23.39
2022-09-04T07:27:49.870Z,23.62
2022-09-04T07:30:17.495Z,23.49
2022-09-04T07:32:51.107Z,23.93
2022-09-04T07:35:42.004Z,23.94
2022-09-04T07:38:32.397Z,24.39
2022-09-04T07:41:28.344Z,23.93
2022-09-04T07:44:06.781Z,24.11
2022-09-04T07:47:13.392Z,24.72
2022-09-04T07:49:50.602Z,24.86
2022-09-04T07:52:18.631Z,23.81
2022-09-04T07:55:00.836Z,24.06
2022-09-04T07:57:52.078Z,24.88
2022-09-04T08:00:21.010Z,25.35
2022-09-04T08:03:11.857Z,25.85
2022-09-04T08:05:48.265Z,25.11
2022-09-04T08:08:42.756Z,25.15
2022-09-04T08:11:27.727Z,25.21
2022-09-04T08:14:12.949Z,25.63
2022-09-04T08:17:03.449Z,25.90
2022-09-04T08:20:02.432Z,25.58
2022-09-04T08:23:12.387Z,25.38
2022-09-04T08:26:12.086Z,25.36
2022-09-04T08:29:07.238Z,26.08
2022-09-04T08:31:55.370Z,26.28
2022-09-04T08:34:53.012Z,26.65
2022-09-04T08:37:58.378Z,27.53
2022-09-04T08:40:36.993Z,28.23
2022-09-04T08:43:24.962Z,27.97
2022-09-04T08:46:13.358Z,28.62
2022-09-04T08:49:21.671Z,28.46
2022-09-04T08:52:00.938Z,27.54
2022-09-04T08:55:11.506Z,28.23
2022-09-04T08:57:56.578Z,28.96
2022-09-04T09:00:47.057Z,30.11
2022-09-04T09:03:29.572Z,30.65
2022-09-04T09:06:33.526Z,30.48
2022-09-04T09:09:18.564Z,31.08
2022-09-04T09:12:42.714Z,32.27
2022-09-04T09:15:40.205Z,32.51
2022-09-04T09:18:18.089Z,33.44
2022-09-04T09:21:30.466Z,33.48
2022-09-04T09:24:23.551Z,34.14
2022-09-04T09:26:57.675Z,34.83
2022-09-04T09:29:34.043Z,35.07
2022-09-04T09:32:16.462Z,35.48
2022-09-04T09:35:08.947Z,36.83
2022-09-04T09:38:10.894Z,40.22
2022-09-04T09:41:00.454Z,46.04
2022-09-04T09:43:36.768Z,49.80
2022-09-04T09:46:21.565Z,52.95
2022-09-04T09:49:14.980Z,48.59
2022-09-04T09:52:05.560Z,53.32
2022-09-04T09:55:03.382Z,55.33
2022-09-04T09:57:48.122Z,51.77
2022-09-04T10:00:19.832Z,51.45
2022-09-04T10:03:01.715Z,50.95
2022-09-04T10:05:28.286Z,50.00
2022-09-04T10:08:17.990Z,50.37
2022-09-04T10:11:09.780Z,54.41
2022-09-04T10:14:03.794Z,53.80
2022-09-04T10:16:33.343Z,54.53
2022-09-04T10:19:18.369Z,55.41
2022-09-04T10:22:00.065Z,56.80
2022-09-04T10:24:58.833Z,55.52
2022-09-04T10:27:41.792Z,54.33
2022-09-04T10:30:15.820Z,48.82
2022-09-04T10:33:08.007Z,54.43
2022-09-04T10:35:57.018Z,57.26
2022-09-04T10:38:58.557Z,58.22
2022-09-04T10:41:51.191Z,59.13
2022-09-04T10:44:30.444Z,55.21
2022-09-04T10:47:02.887Z,51.56
2022-09-04T10:49:39.400Z,55.28
2022-09-04T10:52:21.762Z,57.66
2022-09-04T10:55:13.807Z,57.68
2022-09-04T10:57:47.954Z,53.07
2022-09-04T11:00:51.271Z,48.88
2022-09-04T11:03:34.943Z,40.58
2022-09-04T11:06:25.873Z,41.48
2022-09-04T11:09:04.732Z,46.11
2022-09-04T11:11:54.972Z,50.69
2022-09-04T11:14:28.891Z,52.89
2022-09-04T11:17:17.026Z,55.63
2022-09-04T11:20:23.708Z,58.08
2022-09-04T11:23:08.896Z,58.01
2022-09-04T11:26:05.997Z,58.51
2022-09-04T11:29:23.219Z,57.69
2022-09-04T11:32:08.094Z,59.70
2022-09-04T11:34:50.301Z,59.15
2022-09-04T11:37:37.902Z,55.92
2022-09-04T11:40:16.408Z,53.27
2022-09-04T11:43:15.366Z,53.20
2022-09-04T11:45:51.945Z,52.92
2022-09-04T11:48:44.728Z,55.56
2022-09-04T11:51:48.571Z,58.33
2022-09-04T11:54:41.288Z,58.23
2022-09-04T11:57:13.444Z,59.18
2022-09-04T12:00:11.464Z,56.81
2022-09-04T12:03:16.793Z,57.81
2022-09-04T12:06:35.396Z,57.19
2022-09-04T12:09:07.094Z,53.60
2022-09-04T12:11:36.427Z,47.01
2022-09-04T12:14:09.426Z,43.31
2022-09-04T12:17:01.397Z,41.98
2022-09-04T12:19:30.914Z,41.34
2022-09-04T12:22:36.384Z,39.60
2022-09-04T12:25:18.146Z,38.74
2022-09-04T12:27:56.807Z,37.90
2022-09-04T12:30:30.761Z,36.19
2022-09-04T12:33:03.514Z,35.53
2022-09-04T12:36:04.157Z,34.99
2022-09-04T12:38:37.539Z,34.48
2022-09-04T12:41:06.275Z,34.76
2022-09-04T12:43:43.055Z,34.88
2022-09-04T12:46:18.232Z,34.67
2022-09-04T12:49:03.558Z,34.14
2022-09-04T12:51:44.698Z,35.00
2022-09-04T12:54:17.566Z,35.71
2022-09-04T12:57:11.629Z,34.66
2022-09-04T12:59:57.236Z,34.45
2022-09-04T13:02:34.068Z,34.40
2022-09-04T13:05:11.407Z,34.29
2022-09-04T13:08:11.610Z,34.65
2022-09-04T13:10:53.389Z,34.83
2022-09-04T13:13:58.243Z,34.81
2022-09-04T13:16:33.141Z,34.92
2022-09-04T13:19:16.246Z,35.30
2022-09-04T13:21:56.424Z,35.24
2022-09-04T13:24:28.030Z,35.57
2022-09-04T13:27:26.622Z,35.55
2022-09-04T13:30:09.907Z,35.83
2022-09-04T13:32:55.141Z,36.07
2022-09-04T13:35:47.913Z,34.81
2022-09-04T13:38:26.014Z,33.36
2022-09-04T13:41:20.491Z,33.91
2022-09-04T13:44:08.620Z,32.83
2022-09-04T13:46:40.105Z,32.44
2022-09-04T13:49:20.181Z,32.14
2022-09-04T13:52:08.677Z,33.38
2022-09-04T13:54:47.697Z,32.87
2022-09-04T13:57:25.855Z,32.76
2022-09-04T13:59:55.419Z,32.41
2022-09-04T14:02:25.386Z,33.03
2022-09-04T14:05:04.849Z,33.60
2022-09-04T14:07:36.101Z,33.06
2022-09-04T14:10:10.984Z,33.66
2022-09-04T14:13:03.180Z,34.06
2022-09-04T14:15:32.845Z,34.80
2022-09-04T14:18:35.135Z,35.61
2022-09-04T14:21:43.486Z,35.99
2022-09-04T14:24:42.086Z,33.77
2022-09-04T14:27:22.536Z,33.04
2022-09-04T14:30:24.304Z,33.14
2022-09-04T14:33:05.010Z,33.41
2022-09-04T14:36:00.287Z,33.64
2022-09-04T14:38:31.409Z,34.09
2022-09-04T14:41:23.729Z,33.60
2022-09-04T14:43:59.403Z,32.15
2022-09-04T14:46:46.526Z,31.50
2022-09-04T14:49:21.332Z,31.26
2022-09-04T14:51:49.319Z,31.49
2022-09-04T14:54:19.230Z,31.54
2022-09-04T14:56:55.077Z,31.71
2022-09-04T14:59:37.498Z,32.22
2022-09-04T15:02:13.102Z,32.62
2022-09-04T15:05:14.399Z,32.40
2022-09-04T15:07:43.871Z,32.54
2022-09-04T15:10:28.549Z,31.79
2022-09-04T15:13:35.292Z,31.59
2022-09-04T15:16:16.361Z,32.02
2022-09-04T15:19:03.583Z,32.07
2022-09-04T15:22:05.670Z,32.69
2022-09-04T15:24:44.437Z,32.02
2022-09-04T15:27:16.435Z,31.91
2022-09-04T15:29:51.853Z,31.87
2022-09-04T15:32:21.566Z,31.90
2022-09-04T15:34:49.478Z,31.81
2022-09-04T15:37:22.377Z,31.71
2022-09-04T15:39:53.923Z,31.71
2022-09-04T15:42:46.999Z,31.57
2022-09-04T15:45:22.702Z,31.28
2022-09-04T15:47:55.797Z,31.33
2022-09-04T15:50:28.042Z,31.16
2022-09-04T15:53:49.362Z,31.57
2022-09-04T15:56:15.867Z,31.29
2022-09-04T15:58:49.212Z,31.43
2022-09-04T16:01:20.663Z,31.71
2022-09-04T16:04:21.905Z,32.04
2022-09-04T16:06:57.695Z,31.85
2022-09-04T16:09:31.040Z,31.23
2022-09-04T16:12:02.511Z,31.20
2022-09-04T16:14:35.824Z,31.47
2022-09-04T16:17:12.046Z,31.47
2022-09-04T16:19:43.639Z,31.53
2022-09-04T16:22:26.630Z,31.19
2022-09-04T16:25:11.812Z,31.18
2022-09-04T16:27:51.099Z,30.60
2022-09-04T16:30:31.061Z,30.44
2022-09-04T16:32:58.467Z,30.69
2022-09-04T16:35:26.110Z,30.63
2022-09-04T16:38:19.918Z,30.60
2022-09-04T16:41:06.639Z,30.75
2022-09-04T16:43:34.267Z,30.64
2022-09-04T16:46:25.289Z,30.91
2022-09-04T16:48:57.832Z,30.96
2022-09-04T16:51:39.401Z,30.96
2022-09-04T16:54:08.464Z,30.93
2022-09-04T16:56:42.840Z,31.03
2022-09-04T16:59:24.996Z,30.90
2022-09-04T17:01:57.998Z,30.65
2022-09-04T17:04:40.437Z,30.05
2022-09-04T17:07:11.044Z,30.49
2022-09-04T17:09:56.953Z,30.14
2022-09-04T17:12:32.846Z,30.18
2022-09-04T17:15:11.180Z,30.29
2022-09-04T17:17:41.488Z,29.66
2022-09-04T17:20:21.820Z,30.05
2022-09-04T17:29:03.412Z,30.13
2022-09-04T17:29:09.381Z,30.17
2022-09-04T17:29:15.595Z,29.71
2022-09-04T17:31:48.215Z,29.44
2022-09-04T17:39:57.351Z,29.50
2022-09-04T17:40:50.441Z,29.40
2022-09-04T17:40:53.605Z,29.04
2022-09-04T17:44:02.206Z,29.31
2022-09-04T17:46:43.946Z,29.40
2022-09-04T17:49:21.842Z,29.28
2022-09-04T17:51:58.847Z,29.24
2022-09-04T17:54:31.235Z,29.24
2022-09-04T17:57:01.637Z,29.19
2022-09-04T17:59:35.371Z,29.05
2022-09-04T18:02:12.607Z,29.05
2022-09-04T18:04:47.173Z,29.11
2022-09-04T18:08:07.391Z,29.03
2022-09-04T18:10:31.283Z,28.96
2022-09-04T18:13:36.239Z,28.93
2022-09-04T18:16:24.861Z,28.84
2022-09-04T18:18:51.477Z,28.80
2022-09-04T18:21:28.362Z,28.66
2022-09-04T18:24:00.666Z,28.47
2022-09-04T18:26:40.518Z,28.28
2022-09-04T18:32:09.940Z,28.17
2022-09-04T18:37:22.287Z,28.13
2022-09-04T18:37:25.319Z,28.16
2022-09-04T18:38:29.490Z,28.11
2022-09-04T18:47:28.801Z,28.09
2022-09-04T18:50:24.611Z,28.08
2022-09-04T18:50:36.803Z,27.92
2022-09-04T18:50:45.116Z,27.93
2022-09-04T18:52:15.885Z,27.74
2022-09-04T18:54:47.834Z,27.46
2022-09-04T18:57:29.425Z,27.52
2022-09-04T19:00:28.984Z,27.62
2022-09-04T19:03:07.741Z,27.48
2022-09-04T19:05:44.859Z,27.56
2022-09-04T19:08:19.870Z,27.42
2022-09-04T19:10:53.632Z,27.54
2022-09-04T19:13:29.108Z,27.64
2022-09-04T19:16:01.393Z,27.69
2022-09-04T19:18:48.971Z,27.73
2022-09-04T19:21:35.799Z,27.69
2022-09-04T19:24:13.033Z,27.54
2022-09-04T19:26:44.180Z,27.56
2022-09-04T19:29:19.283Z,27.09
2022-09-04T19:32:01.138Z,27.16
2022-09-04T19:34:40.360Z,27.08
2022-09-04T19:42:25.584Z,27.03
2022-09-04T19:46:04.359Z,27.05
2022-09-04T19:46:17.179Z,27.06
2022-09-04T19:47:28.524Z,27.06
2022-09-04T19:53:20.305Z,27.03
2022-09-04T19:53:37.381Z,26.99
2022-09-04T19:56:30.571Z,26.86
2022-09-04T19:59:05.425Z,26.75
2022-09-04T20:01:50.984Z,26.65
2022-09-04T20:04:34.648Z,26.67
2022-09-04T20:07:09.825Z,26.56
2022-09-04T20:09:44.801Z,26.64
2022-09-04T20:12:26.734Z,26.53
2022-09-04T20:15:18.186Z,26.54
2022-09-04T20:18:09.809Z,26.56
2022-09-04T20:20:56.267Z,26.53
2022-09-04T20:23:37.073Z,26.49
2022-09-04T20:26:07.895Z,26.17
2022-09-04T20:28:48.444Z,26.49
2022-09-04T20:31:36.295Z,26.37
2022-09-04T20:34:32.087Z,26.19
2022-09-04T20:37:01.649Z,26.19
2022-09-04T20:39:35.022Z,25.97
2022-09-04T20:42:06.390Z,26.07
2022-09-04T20:48:12.587Z,26.03
2022-09-04T20:52:45.459Z,25.98
2022-09-04T20:52:58.058Z,25.96
2022-09-04T20:53:52.764Z,25.72
2022-09-04T20:59:32.206Z,25.59
2022-09-04T21:03:18.901Z,25.59
2022-09-04T21:03:29.950Z,25.13
2022-09-04T21:06:10.375Z,24.92
2022-09-04T21:08:52.080Z,25.07
2022-09-04T21:11:54.605Z,25.11
2022-09-04T21:14:44.910Z,24.93
2022-09-04T21:17:33.517Z,25.12
2022-09-04T21:20:04.885Z,25.22
2022-09-04T21:23:05.850Z,25.24
2022-09-04T21:25:56.487Z,25.31
2022-09-04T21:28:22.999Z,25.27
2022-09-04T21:31:14.538Z,25.03
2022-09-04T21:33:59.782Z,24.52
2022-09-04T21:36:33.625Z,24.84
2022-09-04T21:39:17.329Z,24.97
2022-09-04T21:41:59.100Z,25.06
2022-09-04T21:44:36.204Z,24.66
2022-09-04T21:47:08.368Z,24.91
2022-09-04T21:49:47.330Z,24.99
2022-09-04T21:52:32.299Z,25.04
2022-09-04T21:57:25.922Z,24.81
2022-09-04T22:02:36.672Z,24.89
2022-09-04T22:02:39.686Z,24.78
2022-09-04T22:04:18.883Z,24.59
2022-09-04T22:10:52.832Z,24.33
2022-09-04T22:13:39.193Z,24.40
2022-09-04T22:13:50.815Z,24.52
2022-09-04T22:16:31.984Z,24.56
2022-09-04T22:19:16.398Z,24.56
2022-09-04T22:21:49.511Z,24.47
2022-09-04T22:24:31.151Z,24.23
2022-09-04T22:27:22.770Z,24.20
2022-09-04T22:29:51.011Z,23.60
2022-09-04T22:32:29.407Z,23.92
2022-09-04T22:35:36.416Z,23.88
2022-09-04T22:38:18.033Z,24.08
2022-09-04T22:41:06.291Z,24.11
2022-09-04T22:43:45.334Z,23.96
2022-09-04T22:46:32.645Z,24.03
2022-09-04T22:49:12.120Z,24.01
2022-09-04T22:52:01.657Z,24.00
2022-09-04T22:54:48.592Z,23.97
2022-09-04T22:57:33.021Z,24.05
2022-09-04T23:00:16.784Z,24.09
2022-09-04T23:03:08.134Z,23.98
2022-09-04T23:05:35.605Z,24.06
2022-09-04T23:13:44.816Z,23.93
2022-09-04T23:13:47.316Z,24.03
2022-09-04T23:14:19.756Z,24.02
2022-09-04T23:17:02.105Z,23.97
2022-09-04T23:26:31.212Z,23.90
2022-09-04T23:26:44.143Z,23.66
2022-09-04T23:26:49.396Z,23.86
2022-09-04T23:29:15.875Z,23.75
2022-09-04T23:32:07.326Z,23.57
2022-09-04T23:35:13.738Z,23.12
2022-09-04T23:38:00.194Z,23.63
2022-09-04T23:40:34.969Z,23.71
2022-09-04T23:43:42.777Z,23.68
2022-09-04T23:46:28.106Z,23.53
2022-09-04T23:49:23.923Z,23.45
2022-09-04T23:52:08.544Z,23.34
2022-09-04T23:54:51.802Z,23.37
2022-09-04T23:57:26.708Z,23.02
